createdAt,value
2017-04-30T00:00:39.631Z,12.95
2017-04-30T00:03:05.900Z,14.88
2017-04-30T00:05:32.961Z,10.67
2017-04-30T00:08:00.056Z,14.88
2017-04-30T00:10:26.366Z,14.60
2017-04-30T00:12:52.817Z,14.98
2017-04-30T00:15:19.139Z,15.77
2017-04-30T00:17:45.483Z,14.93
2017-04-30T00:20:11.824Z,16.38
2017-04-30T00:22:38.264Z,14.32
2017-04-30T00:25:04.592Z,17.05
2017-04-30T00:27:30.919Z,11.90
2017-04-30T00:29:57.343Z,12.95
2017-04-30T00:32:24.415Z,15.20
2017-04-30T00:34:50.760Z,16.27
2017-04-30T00:37:17.119Z,16.12
2017-04-30T00:39:43.446Z,16.18
2017-04-30T00:42:09.728Z,17.20
2017-04-30T00:44:36.141Z,15.83
2017-04-30T00:47:02.429Z,17.20
2017-04-30T00:49:29.478Z,18.00
2017-04-30T00:51:56.542Z,16.02
2017-04-30T00:54:22.872Z,14.08
2017-04-30T00:56:49.223Z,15.83
2017-04-30T00:59:15.475Z,12.35
2017-04-30T01:01:41.795Z,17.25
2017-04-30T01:04:08.145Z,11.43
2017-04-30T01:06:38.868Z,16.13
2017-04-30T01:09:05.387Z,15.25
2017-04-30T01:11:32.556Z,17.40
2017-04-30T01:13:58.916Z,14.52
2017-04-30T01:16:25.247Z,14.55
2017-04-30T01:18:51.796Z,14.48
2017-04-30T01:21:18.090Z,14.28
2017-04-30T01:23:45.158Z,13.38
2017-04-30T01:26:12.244Z,12.67
2017-04-30T01:28:38.539Z,13.30
2017-04-30T01:31:05.589Z,13.25
2017-04-30T01:33:32.641Z,16.67
2017-04-30T01:35:59.725Z,14.48
2017-04-30T01:38:26.056Z,14.55
2017-04-30T01:40:52.399Z,15.72
2017-04-30T01:43:18.695Z,12.60
2017-04-30T01:45:45.795Z,16.37
2017-04-30T01:48:12.170Z,15.57
2017-04-30T01:50:38.538Z,17.88
2017-04-30T01:53:05.578Z,17.57
2017-04-30T01:55:32.676Z,20.03
2017-04-30T01:57:59.013Z,18.28
2017-04-30T02:00:25.293Z,17.60
2017-04-30T02:02:51.687Z,17.17
2017-04-30T02:05:18.008Z,17.32
2017-04-30T02:07:44.329Z,17.25
2017-04-30T02:10:11.457Z,17.52
2017-04-30T02:12:37.815Z,20.18
2017-04-30T02:15:04.895Z,20.80
2017-04-30T02:17:31.368Z,15.30
2017-04-30T02:19:57.667Z,18.20
2017-04-30T02:22:23.976Z,18.25
2017-04-30T02:24:51.075Z,18.87
2017-04-30T02:27:17.352Z,20.28
2017-04-30T02:29:43.707Z,19.02
2017-04-30T02:32:10.807Z,19.35
2017-04-30T02:34:37.096Z,21.35
2017-04-30T02:37:04.184Z,20.90
2017-04-30T02:39:30.530Z,13.38
2017-04-30T02:41:56.823Z,13.40
2017-04-30T02:44:23.887Z,14.15
2017-04-30T02:46:50.964Z,17.45
2017-04-30T02:49:17.279Z,19.80
2017-04-30T02:51:44.334Z,18.45
2017-04-30T02:54:11.475Z,20.42
2017-04-30T02:56:38.605Z,24.43
2017-04-30T02:59:04.887Z,26.10
2017-04-30T03:01:31.254Z,17.92
2017-04-30T03:03:57.559Z,17.98
2017-04-30T03:06:23.915Z,19.33
2017-04-30T03:08:50.451Z,25.00
2017-04-30T03:11:16.763Z,23.98
2017-04-30T03:13:43.799Z,25.52
2017-04-30T03:16:11.097Z,23.65
2017-04-30T03:18:37.405Z,22.38
2017-04-30T03:21:04.463Z,17.65
2017-04-30T03:23:30.835Z,13.90
2017-04-30T03:25:57.156Z,22.62
2017-04-30T03:28:23.484Z,23.03
2017-04-30T03:30:49.888Z,17.48
2017-04-30T03:33:16.327Z,22.90
2017-04-30T03:35:42.715Z,19.77
2017-04-30T03:38:28.216Z,19.22
2017-04-30T03:41:13.118Z,13.48
2017-04-30T03:43:58.717Z,18.97
2017-04-30T03:46:43.560Z,12.23
2017-04-30T03:49:29.147Z,18.42
2017-04-30T03:52:13.967Z,15.70
2017-04-30T03:54:59.069Z,15.22
2017-04-30T03:57:43.843Z,12.92
2017-04-30T04:00:28.786Z,18.77
2017-04-30T04:03:13.600Z,19.42
2017-04-30T04:05:58.598Z,13.93
2017-04-30T04:08:44.252Z,16.57
2017-04-30T04:11:29.244Z,22.58
2017-04-30T04:14:14.172Z,25.08
2017-04-30T04:16:59.191Z,27.82
2017-04-30T04:19:44.014Z,23.00
2017-04-30T04:22:29.595Z,20.83
2017-04-30T04:25:15.154Z,37.58
2017-04-30T04:28:00.140Z,22.50
2017-04-30T04:30:45.070Z,22.83
2017-04-30T04:33:30.217Z,16.98
2017-04-30T04:36:15.143Z,28.05
2017-04-30T04:39:00.115Z,22.92
2017-04-30T04:41:45.169Z,30.95
2017-04-30T04:44:31.072Z,36.53
2017-04-30T04:47:16.552Z,31.95
2017-04-30T04:50:01.331Z,35.47
2017-04-30T04:52:46.324Z,32.97
2017-04-30T04:55:31.199Z,28.53
2017-04-30T04:58:15.987Z,26.32
2017-04-30T05:01:00.902Z,25.85
2017-04-30T05:03:46.693Z,30.57
2017-04-30T05:06:31.775Z,25.85
2017-04-30T05:09:16.690Z,33.12
2017-04-30T05:12:02.387Z,33.98
2017-04-30T05:14:47.444Z,24.85
2017-04-30T05:17:33.022Z,24.18
2017-04-30T05:20:17.974Z,31.15
2017-04-30T05:23:03.459Z,29.27
2017-04-30T05:25:48.418Z,33.83
2017-04-30T05:28:33.450Z,31.37
2017-04-30T05:31:18.098Z,34.83
2017-04-30T05:34:03.060Z,31.73
2017-04-30T05:36:48.040Z,35.45
2017-04-30T05:39:33.550Z,37.78
2017-04-30T05:42:18.462Z,33.78
2017-04-30T05:45:05.003Z,27.78
2017-04-30T05:47:50.708Z,29.08
2017-04-30T05:50:35.851Z,27.10
2017-04-30T05:53:20.557Z,29.16
2017-04-30T05:56:05.775Z,24.82
2017-04-30T05:58:51.328Z,22.66
2017-04-30T06:01:37.119Z,21.32
2017-04-30T06:04:21.946Z,21.00
2017-04-30T06:07:06.938Z,19.28
2017-04-30T06:09:51.767Z,18.50
2017-04-30T06:12:36.736Z,18.22
2017-04-30T06:15:22.636Z,16.62
2017-04-30T06:18:08.435Z,18.56
2017-04-30T06:20:53.356Z,16.14
2017-04-30T06:23:38.244Z,14.60
2017-04-30T06:26:23.109Z,14.20
2017-04-30T06:29:07.882Z,13.54
2017-04-30T06:31:52.672Z,15.40
2017-04-30T06:34:37.674Z,13.72
2017-04-30T06:37:23.215Z,13.66
2017-04-30T06:40:09.271Z,12.86
2017-04-30T06:42:54.083Z,13.80
2017-04-30T06:45:39.792Z,13.48
2017-04-30T06:48:24.618Z,11.84
2017-04-30T06:51:10.109Z,11.96
2017-04-30T06:53:54.884Z,12.16
2017-04-30T06:56:39.630Z,10.54
2017-04-30T06:59:24.547Z,10.58
2017-04-30T07:02:09.651Z,12.40
2017-04-30T07:04:54.497Z,10.08
2017-04-30T07:07:39.492Z,9.70
2017-04-30T07:10:24.402Z,9.96
2017-04-30T07:13:09.395Z,8.80
2017-04-30T07:15:54.319Z,9.12
2017-04-30T07:18:40.248Z,8.96
2017-04-30T07:21:25.070Z,8.36
2017-04-30T07:24:09.944Z,8.74
2017-04-30T07:26:55.639Z,7.60
2017-04-30T07:29:41.626Z,7.04
2017-04-30T07:32:26.531Z,6.98
2017-04-30T07:35:13.293Z,7.34
2017-04-30T07:37:58.418Z,7.00
2017-04-30T07:40:44.658Z,7.32
2017-04-30T07:43:10.988Z,8.10
2017-04-30T07:45:37.271Z,7.42
2017-04-30T07:48:03.640Z,7.70
2017-04-30T07:50:30.379Z,6.26
2017-04-30T07:52:58.451Z,5.72
2017-04-30T07:55:25.777Z,6.72
2017-04-30T07:57:53.060Z,6.72
2017-04-30T08:00:20.115Z,6.46
2017-04-30T08:02:46.590Z,5.90
2017-04-30T08:05:12.887Z,4.86
2017-04-30T08:07:39.146Z,4.36
2017-04-30T08:10:06.231Z,4.92
2017-04-30T08:12:32.535Z,4.78
2017-04-30T08:14:59.631Z,4.38
2017-04-30T08:17:26.151Z,4.60
2017-04-30T08:19:52.447Z,4.76
2017-04-30T08:22:19.719Z,3.84
2017-04-30T08:24:46.807Z,4.30
2017-04-30T08:27:16.904Z,4.38
2017-04-30T08:29:43.952Z,5.26
2017-04-30T08:32:13.052Z,4.36
2017-04-30T08:34:40.139Z,4.82
2017-04-30T08:37:08.498Z,5.10
2017-04-30T08:39:35.766Z,4.70
2017-04-30T08:42:02.758Z,5.46
2017-04-30T08:44:29.135Z,6.24
2017-04-30T08:46:56.416Z,4.62
2017-04-30T08:49:22.740Z,4.82
2017-04-30T08:51:49.091Z,5.00
2017-04-30T08:54:16.145Z,3.74
2017-04-30T08:56:43.172Z,4.46
2017-04-30T08:59:10.523Z,3.64
2017-04-30T09:01:37.628Z,5.00
2017-04-30T09:04:03.923Z,4.92
2017-04-30T09:06:30.998Z,3.20
2017-04-30T09:08:58.287Z,4.36
2017-04-30T09:11:25.572Z,3.54
2017-04-30T09:13:57.598Z,3.00
2017-04-30T09:16:25.024Z,6.32
2017-04-30T09:18:52.145Z,5.12
2017-04-30T09:21:20.440Z,4.78
2017-04-30T09:23:47.528Z,5.94
2017-04-30T09:26:13.895Z,6.76
2017-04-30T09:28:40.928Z,3.32
2017-04-30T09:31:12.335Z,4.88
2017-04-30T09:33:46.627Z,8.70
2017-04-30T09:36:18.258Z,5.88
2017-04-30T09:38:44.567Z,3.72
2017-04-30T09:41:13.686Z,2.82
2017-04-30T09:43:41.820Z,2.50
2017-04-30T09:46:08.211Z,2.92
2017-04-30T09:48:40.661Z,2.86
2017-04-30T09:51:07.665Z,4.06
2017-04-30T09:53:34.995Z,4.78
2017-04-30T09:56:03.355Z,3.44
2017-04-30T09:58:31.510Z,3.40
2017-04-30T10:01:01.796Z,3.62
2017-04-30T10:03:33.337Z,3.94
2017-04-30T10:06:04.929Z,2.94
2017-04-30T10:08:31.387Z,3.48
2017-04-30T10:10:57.642Z,2.94
2017-04-30T10:13:25.703Z,3.50
2017-04-30T10:15:52.807Z,3.42
2017-04-30T10:18:19.064Z,2.88
2017-04-30T10:20:48.082Z,2.82
2017-04-30T10:23:14.429Z,2.64
2017-04-30T10:25:41.480Z,6.16
2017-04-30T10:28:15.835Z,3.32
2017-04-30T10:30:44.194Z,3.10
2017-04-30T10:33:12.275Z,2.76
2017-04-30T10:35:42.811Z,5.42
2017-04-30T10:38:10.871Z,2.96
2017-04-30T10:40:46.183Z,3.10
2017-04-30T10:43:15.747Z,3.56
2017-04-30T10:45:44.815Z,3.62
2017-04-30T10:48:11.141Z,3.26
2017-04-30T10:50:40.690Z,3.18
2017-04-30T10:53:11.046Z,2.92
2017-04-30T10:55:38.363Z,3.56
2017-04-30T10:58:05.496Z,3.10
2017-04-30T11:00:32.567Z,2.90
2017-04-30T11:03:00.690Z,2.64
2017-04-30T11:05:29.087Z,3.92
2017-04-30T11:07:58.854Z,4.02
2017-04-30T11:10:29.259Z,2.80
2017-04-30T11:12:56.578Z,2.92
2017-04-30T11:15:22.879Z,2.90
2017-04-30T11:17:49.935Z,2.72
2017-04-30T11:20:22.419Z,3.00
2017-04-30T11:22:48.734Z,2.64
2017-04-30T11:25:15.735Z,2.58
2017-04-30T11:27:46.455Z,2.98
2017-04-30T11:30:13.814Z,2.78
2017-04-30T11:32:40.899Z,3.42
2017-04-30T11:35:07.405Z,3.00
2017-04-30T11:37:33.990Z,2.40
2017-04-30T11:40:00.343Z,2.76
2017-04-30T11:42:26.692Z,2.74
2017-04-30T11:44:53.739Z,2.60
2017-04-30T11:47:22.067Z,2.80
2017-04-30T11:49:50.100Z,2.48
2017-04-30T11:52:17.228Z,2.30
2017-04-30T11:54:43.493Z,2.74
2017-04-30T11:57:11.564Z,2.66
2017-04-30T11:59:40.893Z,2.68
2017-04-30T12:02:10.390Z,2.20
2017-04-30T12:04:38.479Z,1.94
2017-04-30T12:07:05.836Z,2.70
2017-04-30T12:09:38.283Z,2.16
2017-04-30T12:12:04.667Z,2.64
2017-04-30T12:14:30.963Z,2.28
2017-04-30T12:16:58.014Z,2.38
2017-04-30T12:19:24.259Z,2.30
2017-04-30T12:21:53.415Z,2.00
2017-04-30T12:24:19.711Z,2.00
2017-04-30T12:26:46.839Z,2.78
2017-04-30T12:29:15.118Z,2.38
2017-04-30T12:31:45.759Z,2.48
2017-04-30T12:34:13.048Z,2.64
2017-04-30T12:36:42.427Z,2.02
2017-04-30T12:39:10.503Z,2.04
2017-04-30T12:41:37.563Z,2.18
2017-04-30T12:44:06.663Z,2.42
2017-04-30T12:46:33.008Z,2.40
2017-04-30T12:49:00.057Z,2.22
2017-04-30T12:51:27.108Z,2.38
2017-04-30T12:53:53.580Z,2.12
2017-04-30T12:56:24.831Z,2.10
2017-04-30T12:58:51.126Z,1.72
2017-04-30T13:01:18.220Z,2.74
2017-04-30T13:03:52.902Z,1.80
2017-04-30T13:06:19.292Z,2.26
2017-04-30T13:08:45.623Z,2.50
2017-04-30T13:11:11.959Z,2.28
2017-04-30T13:13:39.891Z,2.04
2017-04-30T13:16:07.037Z,1.62
2017-04-30T13:18:34.175Z,1.92
2017-04-30T13:21:04.864Z,1.94
2017-04-30T13:23:31.142Z,2.00
2017-04-30T13:25:57.432Z,2.26
2017-04-30T13:28:25.483Z,2.00
2017-04-30T13:30:53.572Z,1.66
2017-04-30T13:33:20.607Z,1.92
2017-04-30T13:35:46.963Z,2.14
2017-04-30T13:38:13.995Z,2.20
2017-04-30T13:40:40.379Z,1.88
2017-04-30T13:43:08.412Z,2.52
2017-04-30T13:45:41.951Z,2.36
2017-04-30T13:48:08.247Z,2.52
2017-04-30T13:50:34.605Z,2.58
2017-04-30T13:53:03.706Z,2.04
2017-04-30T13:55:31.063Z,2.32
2017-04-30T13:57:58.113Z,1.70
2017-04-30T14:00:26.272Z,2.16
2017-04-30T14:02:53.588Z,1.80
2017-04-30T14:05:19.926Z,1.48
2017-04-30T14:07:46.225Z,2.00
2017-04-30T14:10:15.326Z,1.84
2017-04-30T14:12:41.664Z,1.84
2017-04-30T14:15:09.723Z,2.28
2017-04-30T14:17:36.084Z,2.36
2017-04-30T14:20:04.486Z,1.88
2017-04-30T14:22:30.788Z,1.94
2017-04-30T14:24:59.882Z,1.80
2017-04-30T14:27:26.924Z,1.78
2017-04-30T14:29:53.283Z,1.82
2017-04-30T14:32:20.356Z,1.96
2017-04-30T14:34:46.662Z,2.34
2017-04-30T14:37:15.779Z,1.50
2017-04-30T14:39:44.031Z,1.74
2017-04-30T14:42:11.131Z,1.80
2017-04-30T14:44:38.587Z,1.82
2017-04-30T14:47:04.839Z,1.94
2017-04-30T14:49:31.147Z,1.20
2017-04-30T14:51:58.535Z,1.50
2017-04-30T14:54:25.575Z,1.94
2017-04-30T14:56:52.615Z,1.70
2017-04-30T14:59:20.875Z,1.90
2017-04-30T15:01:49.979Z,1.66
2017-04-30T15:04:17.024Z,2.44
2017-04-30T15:06:44.091Z,2.20
2017-04-30T15:09:12.177Z,1.74
2017-04-30T15:11:39.510Z,2.04
2017-04-30T15:14:06.623Z,1.92
2017-04-30T15:16:33.744Z,2.04
2017-04-30T15:19:01.844Z,1.88
2017-04-30T15:21:28.166Z,1.78
2017-04-30T15:23:54.463Z,2.10
2017-04-30T15:26:21.743Z,1.70
2017-04-30T15:28:52.632Z,1.44
2017-04-30T15:31:18.919Z,1.72
2017-04-30T15:33:47.020Z,1.84
2017-04-30T15:36:13.343Z,1.46
2017-04-30T15:38:39.656Z,1.38
2017-04-30T15:41:06.918Z,1.60
2017-04-30T15:43:34.207Z,1.72
2017-04-30T15:46:01.233Z,1.60
2017-04-30T15:48:28.262Z,1.14
2017-04-30T15:50:54.679Z,1.28
2017-04-30T15:53:20.947Z,1.42
2017-04-30T15:55:48.014Z,1.64
2017-04-30T15:58:15.054Z,1.98
2017-04-30T16:00:42.464Z,2.00
2017-04-30T16:03:08.745Z,1.60
2017-04-30T16:05:35.114Z,1.70
2017-04-30T16:08:02.111Z,1.60
2017-04-30T16:10:28.397Z,1.50
2017-04-30T16:12:54.722Z,1.44
2017-04-30T16:15:21.800Z,1.64
2017-04-30T16:17:49.871Z,2.14
2017-04-30T16:20:19.792Z,1.58
2017-04-30T16:22:47.857Z,1.92
2017-04-30T16:25:15.941Z,1.52
2017-04-30T16:27:47.592Z,2.18
2017-04-30T16:30:14.647Z,2.10
2017-04-30T16:32:43.747Z,1.68
2017-04-30T16:35:11.111Z,1.98
2017-04-30T16:37:38.189Z,1.82
2017-04-30T16:40:05.539Z,1.72
2017-04-30T16:42:34.634Z,1.42
2017-04-30T16:45:00.894Z,2.26
2017-04-30T16:47:28.225Z,2.54
2017-04-30T16:49:55.605Z,1.80
2017-04-30T16:52:21.899Z,2.06
2017-04-30T16:54:48.980Z,2.14
2017-04-30T16:57:16.320Z,2.68
2017-04-30T16:59:45.644Z,2.46
2017-04-30T17:02:12.671Z,2.14
2017-04-30T17:04:39.720Z,4.50
2017-04-30T17:07:06.823Z,3.10
2017-04-30T17:09:33.128Z,2.20
2017-04-30T17:11:59.451Z,2.36
2017-04-30T17:14:26.552Z,2.36
2017-04-30T17:16:52.825Z,2.42
2017-04-30T17:19:19.881Z,2.48
2017-04-30T17:21:46.243Z,2.20
2017-04-30T17:24:12.551Z,2.36
2017-04-30T17:26:38.924Z,2.60
2017-04-30T17:29:05.196Z,2.48
2017-04-30T17:31:31.478Z,2.66
2017-04-30T17:33:58.528Z,2.94
2017-04-30T17:36:25.616Z,2.98
2017-04-30T17:38:51.920Z,2.52
2017-04-30T17:41:18.991Z,2.56
2017-04-30T17:43:45.323Z,3.30
2017-04-30T17:46:11.635Z,2.94
2017-04-30T17:48:37.967Z,3.56
2017-04-30T17:51:04.351Z,2.20
2017-04-30T17:53:30.672Z,2.74
2017-04-30T17:55:57.003Z,2.70
2017-04-30T17:58:24.050Z,2.86
2017-04-30T18:00:51.122Z,2.76
2017-04-30T18:03:17.443Z,3.28
2017-04-30T18:05:44.523Z,2.78
2017-04-30T18:08:10.836Z,2.80
2017-04-30T18:10:37.171Z,3.46
2017-04-30T18:13:04.232Z,3.82
2017-04-30T18:15:30.547Z,3.24
2017-04-30T18:17:58.672Z,3.16
2017-04-30T18:20:24.950Z,3.46
2017-04-30T18:22:51.303Z,3.82
2017-04-30T18:25:18.343Z,3.96
2017-04-30T18:27:45.619Z,4.38
2017-04-30T18:30:12.658Z,4.40
2017-04-30T18:32:39.719Z,4.20
2017-04-30T18:35:06.756Z,4.64
2017-04-30T18:37:33.099Z,4.50
2017-04-30T18:39:59.440Z,5.44
2017-04-30T18:42:26.487Z,5.38
2017-04-30T18:44:53.542Z,4.96
2017-04-30T18:47:19.936Z,5.18
2017-04-30T18:49:47.316Z,5.12
2017-04-30T18:52:13.627Z,5.66
2017-04-30T18:54:40.125Z,5.84
2017-04-30T18:57:07.279Z,5.84
2017-04-30T18:59:34.321Z,6.18
2017-04-30T19:02:00.757Z,8.58
2017-04-30T19:04:27.095Z,8.88
2017-04-30T19:06:53.351Z,9.18
2017-04-30T19:09:20.392Z,11.32
2017-04-30T19:11:46.742Z,8.10
2017-04-30T19:14:13.776Z,7.44
2017-04-30T19:16:40.135Z,8.78
2017-04-30T19:19:07.167Z,9.48
2017-04-30T19:21:33.515Z,7.78
2017-04-30T19:24:00.565Z,6.90
2017-04-30T19:26:28.658Z,12.92
2017-04-30T19:28:55.702Z,9.84
2017-04-30T19:31:22.764Z,7.00
2017-04-30T19:33:49.076Z,6.96
2017-04-30T19:36:15.452Z,6.00
2017-04-30T19:38:41.758Z,6.44
2017-04-30T19:41:08.857Z,5.76
2017-04-30T19:43:35.162Z,6.10
2017-04-30T19:46:02.212Z,6.18
2017-04-30T19:48:29.260Z,6.82
2017-04-30T19:50:56.331Z,6.38
2017-04-30T19:53:22.664Z,5.84
2017-04-30T19:55:48.998Z,6.26
2017-04-30T19:58:16.026Z,8.72
2017-04-30T20:00:42.378Z,6.64
2017-04-30T20:03:09.507Z,5.24
2017-04-30T20:05:36.570Z,5.80
2017-04-30T20:08:02.908Z,6.30
2017-04-30T20:10:30.733Z,6.10
2017-04-30T20:12:57.026Z,5.70
2017-04-30T20:15:24.245Z,8.12
2017-04-30T20:17:50.501Z,16.26
2017-04-30T20:20:16.837Z,17.66
2017-04-30T20:22:43.119Z,16.14
2017-04-30T20:25:11.160Z,13.30
2017-04-30T20:27:38.172Z,10.48
2017-04-30T20:30:04.474Z,8.30
2017-04-30T20:32:30.791Z,12.02
2017-04-30T20:34:58.055Z,17.10
2017-04-30T20:37:25.171Z,14.82
2017-04-30T20:39:51.564Z,14.44
2017-04-30T20:42:18.586Z,12.82
2017-04-30T20:44:44.915Z,11.90
2017-04-30T20:47:11.252Z,15.14
2017-04-30T20:49:37.594Z,12.44
2017-04-30T20:52:04.164Z,18.00
2017-04-30T20:54:30.471Z,19.32
2017-04-30T20:56:56.727Z,18.80
2017-04-30T20:59:23.768Z,17.40
2017-04-30T21:01:50.812Z,21.68
2017-04-30T21:04:17.166Z,19.28
2017-04-30T21:06:44.197Z,17.78
2017-04-30T21:09:11.239Z,17.80
2017-04-30T21:11:37.615Z,12.06
2017-04-30T21:14:04.690Z,15.44
2017-04-30T21:16:31.689Z,17.82
2017-04-30T21:18:58.054Z,18.42
2017-04-30T21:21:25.117Z,16.60
2017-04-30T21:24:06.351Z,16.48
2017-04-30T21:26:34.077Z,17.96
2017-04-30T21:29:00.367Z,17.96
2017-04-30T21:31:27.153Z,17.86
2017-04-30T21:33:53.488Z,15.06
2017-04-30T21:36:19.797Z,16.38
2017-04-30T21:38:46.835Z,18.46
2017-04-30T21:41:13.198Z,24.82
2017-04-30T21:43:40.228Z,27.24
2017-04-30T21:46:06.512Z,19.38
2017-04-30T21:48:32.837Z,13.30
2017-04-30T21:50:59.859Z,10.28
2017-04-30T21:53:27.649Z,9.52
2017-04-30T21:55:53.992Z,9.20
2017-04-30T21:58:20.475Z,7.52
2017-04-30T22:00:46.808Z,6.42
2017-04-30T22:03:13.086Z,6.70
2017-04-30T22:05:40.231Z,8.52
2017-04-30T22:08:06.550Z,12.90
2017-04-30T22:10:33.044Z,14.00
2017-04-30T22:12:59.342Z,16.98
2017-04-30T22:15:25.696Z,16.34
2017-04-30T22:17:52.791Z,17.94
2017-04-30T22:20:19.043Z,17.40
2017-04-30T22:22:45.295Z,17.76
2017-04-30T22:25:11.698Z,14.22
2017-04-30T22:27:37.980Z,28.86
2017-04-30T22:30:05.026Z,34.66
2017-04-30T22:32:32.080Z,31.02
2017-04-30T22:34:58.421Z,27.70
2017-04-30T22:37:25.494Z,20.20
2017-04-30T22:39:52.471Z,19.40
2017-04-30T22:42:18.758Z,16.88
2017-04-30T22:44:45.811Z,16.56
2017-04-30T22:47:12.167Z,11.66
2017-04-30T22:49:39.206Z,14.32
2017-04-30T22:52:06.228Z,12.08
2017-04-30T22:54:32.758Z,8.72
2017-04-30T22:56:59.108Z,8.24
2017-04-30T22:59:25.475Z,8.86
2017-04-30T23:01:52.534Z,9.20
2017-04-30T23:04:19.600Z,9.54
2017-04-30T23:06:45.914Z,9.24
2017-04-30T23:09:12.240Z,8.80
2017-04-30T23:11:40.122Z,7.44
2017-04-30T23:14:06.464Z,10.08
2017-04-30T23:16:33.536Z,8.86
2017-04-30T23:18:59.851Z,9.44
2017-04-30T23:21:26.923Z,10.12
2017-04-30T23:23:53.230Z,10.36
2017-04-30T23:26:19.623Z,9.42
2017-04-30T23:28:45.915Z,9.10
2017-04-30T23:31:13.003Z,9.14
2017-04-30T23:33:39.266Z,9.48
2017-04-30T23:36:05.582Z,7.30
2017-04-30T23:38:31.869Z,7.46
2017-04-30T23:40:58.215Z,7.20
2017-04-30T23:43:25.320Z,6.80
2017-04-30T23:45:51.596Z,7.52
2017-04-30T23:48:17.847Z,8.40
2017-04-30T23:50:44.915Z,7.62
2017-04-30T23:53:11.214Z,7.92
2017-04-30T23:55:37.546Z,9.04
2017-04-30T23:58:03.893Z,9.52
